sensor_id;sensor_type;location;lat;lon;timestamp;pressure;altitude;pressure_sealevel;temperature;humidity
74427;BME280;62859;53.906;27.430;2023-02-11T00:01:45;1015.9;;;2.8;60.2
74427;BME280;62859;53.906;27.430;2023-02-11T00:06:37;1015.8;;;2.7;60.4
74427;BME280;62859;53.906;27.430;2023-02-11T00:12:01;1015.8;;;2.7;60.7
74427;BME280;62859;53.906;27.430;2023-02-11T00:16:25;1015.7;;;2.7;61.1
74427;BME280;62859;53.906;27.430;2023-02-11T00:22:01;1015.7;;;2.7;61.3
74427;BME280;62859;53.906;27.430;2023-02-11T00:26:26;1015.7;;;2.7;61.7
74427;BME280;62859;53.906;27.430;2023-02-11T00:31:49;1015.7;;;2.7;62
74427;BME280;62859;53.906;27.430;2023-02-11T00:36:25;1015.5;;;2.6;62.3
74427;BME280;62859;53.906;27.430;2023-02-11T00:41:59;1015.4;;;2.7;62.3
74427;BME280;62859;53.906;27.430;2023-02-11T00:46:39;1015.4;;;2.7;62
74427;BME280;62859;53.906;27.430;2023-02-11T00:51:49;1015.2;;;2.7;61.8
74427;BME280;62859;53.906;27.430;2023-02-11T00:56:49;1015.2;;;2.7;61.6
74427;BME280;62859;53.906;27.430;2023-02-11T01:01:59;1015.1;;;2.7;61.5
74427;BME280;62859;53.906;27.430;2023-02-11T01:06:25;1015;;;2.7;61.5
74427;BME280;62859;53.906;27.430;2023-02-11T01:11:25;1014.9;;;2.8;61.3
74427;BME280;62859;53.906;27.430;2023-02-11T01:16:51;1014.8;;;2.9;61.6
74427;BME280;62859;53.906;27.430;2023-02-11T01:21:25;1014.8;;;2.9;61.3
74427;BME280;62859;53.906;27.430;2023-02-11T01:26:11;1014.7;;;2.9;61.2
74427;BME280;62859;53.906;27.430;2023-02-11T01:31:59;1014.6;;;2.9;61.2
74427;BME280;62859;53.906;27.430;2023-02-11T01:36:35;1014.6;;;2.9;61.1
74427;BME280;62859;53.906;27.430;2023-02-11T01:41:35;1014.5;;;3;61.3
74427;BME280;62859;53.906;27.430;2023-02-11T01:46:59;1014.4;;;3;61.3
74427;BME280;62859;53.906;27.430;2023-02-11T01:51:37;1014.4;;;3;61.6
74427;BME280;62859;53.906;27.430;2023-02-11T01:56:11;1014.2;;;3;61.8
74427;BME280;62859;53.906;27.430;2023-02-11T02:01:31;1014.2;;;3;62
74427;BME280;62859;53.906;27.430;2023-02-11T02:06:29;1014.1;;;3;62
74427;BME280;62859;53.906;27.430;2023-02-11T02:11:37;1014;;;3;62.4
74427;BME280;62859;53.906;27.430;2023-02-11T02:16:29;1013.9;;;3;62.6
74427;BME280;62859;53.906;27.430;2023-02-11T02:22:14;1013.8;;;2.9;62.7
74427;BME280;62859;53.906;27.430;2023-02-11T02:27:03;1013.7;;;2.9;63.2
74427;BME280;62859;53.906;27.430;2023-02-11T02:33:05;1013.6;;;2.8;63.7
74427;BME280;62859;53.906;27.430;2023-02-11T02:36:36;1013.5;;;2.8;64.1
74427;BME280;62859;53.906;27.430;2023-02-11T02:41:59;1013.4;;;2.8;64.3
74427;BME280;62859;53.906;27.430;2023-02-11T02:46:25;1013.3;;;2.9;64.6
74427;BME280;62859;53.906;27.430;2023-02-11T02:51:41;1013.3;;;2.8;64.8
74427;BME280;62859;53.906;27.430;2023-02-11T02:56:22;1013.1;;;2.8;64.7
74427;BME280;62859;53.906;27.430;2023-02-11T03:01:12;1013.1;;;2.9;64.6
74427;BME280;62859;53.906;27.430;2023-02-11T03:06:37;1013;;;2.8;64.8
74427;BME280;62859;53.906;27.430;2023-02-11T03:11:25;1012.9;;;2.7;64.9
74427;BME280;62859;53.906;27.430;2023-02-11T03:16:37;1012.8;;;2.7;65.2
74427;BME280;62859;53.906;27.430;2023-02-11T03:22:01;1012.8;;;2.6;65.3
74427;BME280;62859;53.906;27.430;2023-02-11T03:26:39;1012.7;;;2.6;65.5
74427;BME280;62859;53.906;27.430;2023-02-11T03:31:36;1012.6;;;2.7;65.4
74427;BME280;62859;53.906;27.430;2023-02-11T03:37:02;1012.5;;;2.8;65.4
74427;BME280;62859;53.906;27.430;2023-02-11T03:41:31;1012.3;;;2.8;65.1
74427;BME280;62859;53.906;27.430;2023-02-11T03:46:11;1012.2;;;2.7;65.3
74427;BME280;62859;53.906;27.430;2023-02-11T03:51:25;1012.1;;;2.6;65.8
74427;BME280;62859;53.906;27.430;2023-02-11T03:56:37;1012.1;;;2.7;65.7
74427;BME280;62859;53.906;27.430;2023-02-11T04:01:37;1012;;;2.7;65.5
74427;BME280;62859;53.906;27.430;2023-02-11T04:07:01;1012;;;2.8;65.4
74427;BME280;62859;53.906;27.430;2023-02-11T04:11:37;1011.8;;;2.7;65.4
74427;BME280;62859;53.906;27.430;2023-02-11T04:16:49;1011.7;;;2.7;65.5
74427;BME280;62859;53.906;27.430;2023-02-11T04:21:37;1011.5;;;2.7;65.9
74427;BME280;62859;53.906;27.430;2023-02-11T04:26:59;1011.3;;;2.7;66
74427;BME280;62859;53.906;27.430;2023-02-11T04:31:11;1011.2;;;2.6;65.9
74427;BME280;62859;53.906;27.430;2023-02-11T04:36:47;1011;;;2.6;66
74427;BME280;62859;53.906;27.430;2023-02-11T04:41:25;1010.8;;;2.6;66.1
74427;BME280;62859;53.906;27.430;2023-02-11T04:47:01;1010.7;;;2.4;66.7
74427;BME280;62859;53.906;27.430;2023-02-11T04:51:49;1010.6;;;2.4;66.8
74427;BME280;62859;53.906;27.430;2023-02-11T04:56:59;1010.4;;;2.4;66.8
74427;BME280;62859;53.906;27.430;2023-02-11T05:01:59;1010.3;;;2.5;66.8
74427;BME280;62859;53.906;27.430;2023-02-11T05:06:47;1010.3;;;2.6;66.7
74427;BME280;62859;53.906;27.430;2023-02-11T05:11:47;1010.2;;;2.5;67
74427;BME280;62859;53.906;27.430;2023-02-11T05:16:23;1010.2;;;2.4;67.6
74427;BME280;62859;53.906;27.430;2023-02-11T05:21:47;1010;;;2.3;67.6
74427;BME280;62859;53.906;27.430;2023-02-11T05:26:11;1010;;;2.4;67.5
74427;BME280;62859;53.906;27.430;2023-02-11T05:31:43;1009.9;;;2.4;67.3
74427;BME280;62859;53.906;27.430;2023-02-11T05:36:25;1009.7;;;2.4;67.7
74427;BME280;62859;53.906;27.430;2023-02-11T05:41:45;1009.6;;;2.3;68.1
74427;BME280;62859;53.906;27.430;2023-02-11T05:46:35;1009.6;;;2.2;68.9
74427;BME280;62859;53.906;27.430;2023-02-11T05:51:59;1009.4;;;2.2;69
74427;BME280;62859;53.906;27.430;2023-02-11T05:56:49;1009.4;;;2.2;69
74427;BME280;62859;53.906;27.430;2023-02-11T06:01:45;1009.2;;;2.2;68.9
74427;BME280;62859;53.906;27.430;2023-02-11T06:06:59;1009;;;2.3;68.7
74427;BME280;62859;53.906;27.430;2023-02-11T06:11:21;1009;;;2.3;68.6
74427;BME280;62859;53.906;27.430;2023-02-11T06:16:49;1009;;;2.3;69.1
74427;BME280;62859;53.906;27.430;2023-02-11T06:21:45;1008.9;;;2.4;68.5
74427;BME280;62859;53.906;27.430;2023-02-11T06:26:49;1008.8;;;2.5;68.3
74427;BME280;62859;53.906;27.430;2023-02-11T06:31:11;1008.7;;;2.5;68.6
74427;BME280;62859;53.906;27.430;2023-02-11T06:36:59;1008.7;;;2.5;68.8
74427;BME280;62859;53.906;27.430;2023-02-11T06:41:35;1008.6;;;2.5;68.5
74427;BME280;62859;53.906;27.430;2023-02-11T06:47:01;1008.5;;;2.6;68.4
74427;BME280;62859;53.906;27.430;2023-02-11T06:51:45;1008.5;;;2.6;68.1
74427;BME280;62859;53.906;27.430;2023-02-11T06:56:47;1008.4;;;2.6;68.3
74427;BME280;62859;53.906;27.430;2023-02-11T07:01:57;1008.3;;;2.6;68.4
74427;BME280;62859;53.906;27.430;2023-02-11T07:06:25;1008.2;;;2.6;68.3
74427;BME280;62859;53.906;27.430;2023-02-11T07:11:47;1008.2;;;2.7;68
74427;BME280;62859;53.906;27.430;2023-02-11T07:16:21;1008.1;;;2.8;68.3
74427;BME280;62859;53.906;27.430;2023-02-11T07:21:37;1008;;;2.8;68.4
74427;BME280;62859;53.906;27.430;2023-02-11T07:26:23;1007.8;;;2.9;68
74427;BME280;62859;53.906;27.430;2023-02-11T07:31:59;1007.8;;;2.9;68
74427;BME280;62859;53.906;27.430;2023-02-11T07:36:47;1007.7;;;2.9;68.3
74427;BME280;62859;53.906;27.430;2023-02-11T07:41:49;1007.6;;;3;68.1
74427;BME280;62859;53.906;27.430;2023-02-11T07:46:25;1007.5;;;3.1;68.1
74427;BME280;62859;53.906;27.430;2023-02-11T07:51:59;1007.4;;;3.1;68.3
74427;BME280;62859;53.906;27.430;2023-02-11T07:56:37;1007.2;;;3.2;68.4
74427;BME280;62859;53.906;27.430;2023-02-11T08:01:37;1007.2;;;3.3;68.7
74427;BME280;62859;53.906;27.430;2023-02-11T08:06:59;1007.1;;;3.3;68.8
74427;BME280;62859;53.906;27.430;2023-02-11T08:11:35;1007;;;3.4;68.5
74427;BME280;62859;53.906;27.430;2023-02-11T08:16:37;1006.9;;;3.4;68.4
74427;BME280;62859;53.906;27.430;2023-02-11T08:22:01;1006.8;;;3.5;68.5
74427;BME280;62859;53.906;27.430;2023-02-11T08:27:01;1006.7;;;3.4;68.5
74427;BME280;62859;53.906;27.430;2023-02-11T08:31:20;1006.5;;;3.5;68.3
74427;BME280;62859;53.906;27.430;2023-02-11T08:37:01;1006.3;;;3.5;68.6
74427;BME280;62859;53.906;27.430;2023-02-11T08:41:11;1006.3;;;3.5;68.3
74427;BME280;62859;53.906;27.430;2023-02-11T08:46:45;1006.2;;;3.6;68.4
74427;BME280;62859;53.906;27.430;2023-02-11T08:51:12;1006.1;;;3.6;68.4
74427;BME280;62859;53.906;27.430;2023-02-11T08:56:35;1005.9;;;3.7;68.3
74427;BME280;62859;53.906;27.430;2023-02-11T09:01:11;1005.9;;;3.7;67.9
74427;BME280;62859;53.906;27.430;2023-02-11T09:06:11;1005.8;;;3.7;67.9
74427;BME280;62859;53.906;27.430;2023-02-11T09:11:37;1005.8;;;3.8;67.6
74427;BME280;62859;53.906;27.430;2023-02-11T09:16:57;1005.7;;;3.8;67.7
74427;BME280;62859;53.906;27.430;2023-02-11T09:21:11;1005.6;;;3.8;67.6
74427;BME280;62859;53.906;27.430;2023-02-11T09:26:12;1005.5;;;3.8;67.5
74427;BME280;62859;53.906;27.430;2023-02-11T09:31:57;1005.4;;;3.9;67.3
74427;BME280;62859;53.906;27.430;2023-02-11T09:36:11;1005.3;;;4;67.4
74427;BME280;62859;53.906;27.430;2023-02-11T09:41:16;1005.2;;;4;67.6
74427;BME280;62859;53.906;27.430;2023-02-11T09:46:35;1005;;;4;67.6
74427;BME280;62859;53.906;27.430;2023-02-11T09:51:23;1004.9;;;4;67.5
74427;BME280;62859;53.906;27.430;2023-02-11T09:56:37;1004.8;;;3.9;67.6
74427;BME280;62859;53.906;27.430;2023-02-11T10:01:59;1004.7;;;4;67.3
74427;BME280;62859;53.906;27.430;2023-02-11T10:06:40;1004.7;;;4;67.2
74427;BME280;62859;53.906;27.430;2023-02-11T10:12:02;1004.6;;;3.9;67.1
74427;BME280;62859;53.906;27.430;2023-02-11T10:17:03;1004.5;;;3.9;67.1
74427;BME280;62859;53.906;27.430;2023-02-11T10:22:03;1004.4;;;4;67.1
74427;BME280;62859;53.906;27.430;2023-02-11T10:26:25;1004.3;;;4;67.7
74427;BME280;62859;53.906;27.430;2023-02-11T10:31:47;1004.2;;;4;67.8
74427;BME280;62859;53.906;27.430;2023-02-11T10:36:27;1004.2;;;3.9;67.7
74427;BME280;62859;53.906;27.430;2023-02-11T10:42:01;1004.1;;;3.9;67.7
74427;BME280;62859;53.906;27.430;2023-02-11T10:46:28;1004;;;3.9;67.8
74427;BME280;62859;53.906;27.430;2023-02-11T10:51:37;1004;;;3.9;67.9
74427;BME280;62859;53.906;27.430;2023-02-11T10:56:59;1003.9;;;3.9;67.9
74427;BME280;62859;53.906;27.430;2023-02-11T11:01:39;1003.8;;;3.9;67.8
74427;BME280;62859;53.906;27.430;2023-02-11T11:07:09;1003.7;;;3.8;68
74427;BME280;62859;53.906;27.430;2023-02-11T11:11:40;1003.6;;;3.9;68
74427;BME280;62859;53.906;27.430;2023-02-11T11:16:59;1003.5;;;3.9;68.2
74427;BME280;62859;53.906;27.430;2023-02-11T11:21:12;1003.3;;;3.9;68.2
74427;BME280;62859;53.906;27.430;2023-02-11T11:26:25;1003.3;;;3.8;68.1
74427;BME280;62859;53.906;27.430;2023-02-11T11:31:11;1003.2;;;3.8;67.9
74427;BME280;62859;53.906;27.430;2023-02-11T11:36:57;1003;;;3.8;68
74427;BME280;62859;53.906;27.430;2023-02-11T11:41:25;1003;;;3.9;67.8
74427;BME280;62859;53.906;27.430;2023-02-11T11:47:33;1003.1;;;3.9;68
74427;BME280;62859;53.906;27.430;2023-02-11T11:51:57;1002.9;;;3.9;68
74427;BME280;62859;53.906;27.430;2023-02-11T11:56:49;1002.8;;;3.9;67.9
74427;BME280;62859;53.906;27.430;2023-02-11T12:01:44;1002.7;;;3.9;68.3
74427;BME280;62859;53.906;27.430;2023-02-11T12:06:14;1002.6;;;3.9;68.3
74427;BME280;62859;53.906;27.430;2023-02-11T12:11:52;1002.6;;;3.9;68.1
74427;BME280;62859;53.906;27.430;2023-02-11T12:16:14;1002.4;;;3.9;68.2
74427;BME280;62859;53.906;27.430;2023-02-11T12:21:48;1002.3;;;3.9;68
74427;BME280;62859;53.906;27.430;2023-02-11T12:26:21;1002.3;;;3.9;67.7
74427;BME280;62859;53.906;27.430;2023-02-11T12:31:44;1002.3;;;3.9;67.8
74427;BME280;62859;53.906;27.430;2023-02-11T12:36:27;1002.1;;;3.9;67.7
74427;BME280;62859;53.906;27.430;2023-02-11T12:42:05;1002.1;;;4;67.8
74427;BME280;62859;53.906;27.430;2023-02-11T12:46:48;1002.1;;;4;67.7
74427;BME280;62859;53.906;27.430;2023-02-11T12:51:51;1002;;;4;67.8
74427;BME280;62859;53.906;27.430;2023-02-11T12:57:02;1002;;;3.9;67.9
74427;BME280;62859;53.906;27.430;2023-02-11T13:01:19;1001.9;;;3.9;68.1
74427;BME280;62859;53.906;27.430;2023-02-11T13:06:38;1001.9;;;4;68
74427;BME280;62859;53.906;27.430;2023-02-11T13:11:13;1001.9;;;4;67.4
74427;BME280;62859;53.906;27.430;2023-02-11T13:16:34;1001.8;;;4;67.3
74427;BME280;62859;53.906;27.430;2023-02-11T13:21:42;1001.8;;;4;67.4
74427;BME280;62859;53.906;27.430;2023-02-11T13:27:00;1001.7;;;4;67.4
74427;BME280;62859;53.906;27.430;2023-02-11T13:31:33;1001.6;;;4.1;67.5
74427;BME280;62859;53.906;27.430;2023-02-11T13:36:53;1001.6;;;4;67.9
74427;BME280;62859;53.906;27.430;2023-02-11T13:41:37;1001.6;;;3.9;68.4
74427;BME280;62859;53.906;27.430;2023-02-11T13:47:01;1001.6;;;3.9;68.5
74427;BME280;62859;53.906;27.430;2023-02-11T13:51:32;1001.5;;;4;68.3
74427;BME280;62859;53.906;27.430;2023-02-11T13:56:11;1001.5;;;3.9;68.2
74427;BME280;62859;53.906;27.430;2023-02-11T14:02:00;1001.4;;;3.9;68.5
74427;BME280;62859;53.906;27.430;2023-02-11T14:06:12;1001.4;;;3.9;68.3
74427;BME280;62859;53.906;27.430;2023-02-11T14:11:50;1001.4;;;3.9;68.3
74427;BME280;62859;53.906;27.430;2023-02-11T14:17:25;1001.4;;;3.9;68.4
74427;BME280;62859;53.906;27.430;2023-02-11T14:22:01;1001.5;;;4;68.2
74427;BME280;62859;53.906;27.430;2023-02-11T14:26:39;1001.4;;;4;68.4
74427;BME280;62859;53.906;27.430;2023-02-11T14:31:59;1001.5;;;4;68
74427;BME280;62859;53.906;27.430;2023-02-11T14:36:40;1001.6;;;4;68
74427;BME280;62859;53.906;27.430;2023-02-11T14:41:15;1001.6;;;3.9;68.2
74427;BME280;62859;53.906;27.430;2023-02-11T14:46:37;1001.6;;;3.9;68.2
74427;BME280;62859;53.906;27.430;2023-02-11T14:51:12;1001.6;;;3.9;68.3
74427;BME280;62859;53.906;27.430;2023-02-11T14:57:05;1001.6;;;3.9;68.4
74427;BME280;62859;53.906;27.430;2023-02-11T15:01:21;1001.6;;;3.9;68.8
74427;BME280;62859;53.906;27.430;2023-02-11T15:06:49;1001.5;;;3.8;69
74427;BME280;62859;53.906;27.430;2023-02-11T15:12:01;1001.4;;;3.9;69.1
74427;BME280;62859;53.906;27.430;2023-02-11T15:17:00;1001.4;;;3.9;69
74427;BME280;62859;53.906;27.430;2023-02-11T15:21:37;1001.5;;;3.8;69
74427;BME280;62859;53.906;27.430;2023-02-11T15:27:01;1001.5;;;3.8;69.1
74427;BME280;62859;53.906;27.430;2023-02-11T15:31:31;1001.6;;;3.8;69.2
74427;BME280;62859;53.906;27.430;2023-02-11T15:36:37;1001.6;;;3.8;69.2
74427;BME280;62859;53.906;27.430;2023-02-11T15:41:35;1001.6;;;3.9;69.2
74427;BME280;62859;53.906;27.430;2023-02-11T15:46:11;1001.7;;;3.9;69.2
74427;BME280;62859;53.906;27.430;2023-02-11T15:51:37;1001.7;;;3.9;69.5
74427;BME280;62859;53.906;27.430;2023-02-11T15:56:24;1001.8;;;4;69.3
74427;BME280;62859;53.906;27.430;2023-02-11T16:01:39;1001.9;;;4;69.3
74427;BME280;62859;53.906;27.430;2023-02-11T16:07:01;1001.9;;;4.1;69.1
74427;BME280;62859;53.906;27.430;2023-02-11T16:11:52;1001.9;;;4.1;69.2
74427;BME280;62859;53.906;27.430;2023-02-11T16:16:45;1001.9;;;4.1;69.4
74427;BME280;62859;53.906;27.430;2023-02-11T16:22:04;1001.9;;;4.1;69.8
74427;BME280;62859;53.906;27.430;2023-02-11T16:26:26;1001.8;;;4.1;70
74427;BME280;62859;53.906;27.430;2023-02-11T16:31:40;1001.9;;;4.1;70.1
74427;BME280;62859;53.906;27.430;2023-02-11T16:36:37;1002.1;;;4.2;70.5
74427;BME280;62859;53.906;27.430;2023-02-11T16:41:11;1002.1;;;4.2;70.1
74427;BME280;62859;53.906;27.430;2023-02-11T16:46:27;1002.2;;;4.3;69.9
74427;BME280;62859;53.906;27.430;2023-02-11T16:51:49;1002.2;;;4.3;70
74427;BME280;62859;53.906;27.430;2023-02-11T16:56:23;1002.3;;;4.4;69.8
74427;BME280;62859;53.906;27.430;2023-02-11T17:01:55;1002.4;;;4.4;69.6
74427;BME280;62859;53.906;27.430;2023-02-11T17:06:23;1002.5;;;4.4;69.4
74427;BME280;62859;53.906;27.430;2023-02-11T17:11:59;1002.6;;;4.5;69.2
74427;BME280;62859;53.906;27.430;2023-02-11T17:16:25;1002.6;;;4.5;69
74427;BME280;62859;53.906;27.430;2023-02-11T17:21:48;1002.7;;;4.6;69.4
74427;BME280;62859;53.906;27.430;2023-02-11T17:26:25;1002.9;;;4.7;68.8
74427;BME280;62859;53.906;27.430;2023-02-11T17:31:55;1003;;;4.7;68.5
74427;BME280;62859;53.906;27.430;2023-02-11T17:36:37;1003.1;;;4.7;68.4
74427;BME280;62859;53.906;27.430;2023-02-11T17:42:01;1003.2;;;4.7;68.4
74427;BME280;62859;53.906;27.430;2023-02-11T17:47:01;1003.4;;;4.6;68.7
74427;BME280;62859;53.906;27.430;2023-02-11T17:51:49;1003.5;;;4.5;68.8
74427;BME280;62859;53.906;27.430;2023-02-11T17:56:45;1003.6;;;4.5;69
74427;BME280;62859;53.906;27.430;2023-02-11T18:01:40;1003.7;;;4.4;69.1
74427;BME280;62859;53.906;27.430;2023-02-11T18:06:49;1003.8;;;4.5;69.6
74427;BME280;62859;53.906;27.430;2023-02-11T18:11:11;1004;;;4.4;69.6
74427;BME280;62859;53.906;27.430;2023-02-11T18:17:01;1004.3;;;4.4;69.5
74427;BME280;62859;53.906;27.430;2023-02-11T18:21:25;1004.4;;;4.4;69.2
74427;BME280;62859;53.906;27.430;2023-02-11T18:26:47;1004.6;;;4.5;68.6
74427;BME280;62859;53.906;27.430;2023-02-11T18:31:31;1004.7;;;4.4;68.3
74427;BME280;62859;53.906;27.430;2023-02-11T18:37:01;1004.9;;;4.4;67.8
74427;BME280;62859;53.906;27.430;2023-02-11T18:41:11;1005.1;;;4.4;67.4
74427;BME280;62859;53.906;27.430;2023-02-11T18:46:47;1005.2;;;4.4;66.9
74427;BME280;62859;53.906;27.430;2023-02-11T18:51:59;1005.4;;;4.4;67
74427;BME280;62859;53.906;27.430;2023-02-11T18:56:25;1005.4;;;4.4;67.1
74427;BME280;62859;53.906;27.430;2023-02-11T19:01:59;1005.6;;;4.4;66.4
74427;BME280;62859;53.906;27.430;2023-02-11T19:06:27;1005.8;;;4.3;65.8
74427;BME280;62859;53.906;27.430;2023-02-11T19:11:47;1005.9;;;4.3;65.8
74427;BME280;62859;53.906;27.430;2023-02-11T19:16:25;1006.1;;;4.2;65.3
74427;BME280;62859;53.906;27.430;2023-02-11T19:21:47;1006.2;;;4.2;65.4
74427;BME280;62859;53.906;27.430;2023-02-11T19:26:35;1006.3;;;4.2;65.4
74427;BME280;62859;53.906;27.430;2023-02-11T19:31:57;1006.4;;;4.1;65.5
74427;BME280;62859;53.906;27.430;2023-02-11T19:36:35;1006.6;;;4.1;65.4
74427;BME280;62859;53.906;27.430;2023-02-11T19:41:49;1006.7;;;4.1;65.3
74427;BME280;62859;53.906;27.430;2023-02-11T19:47:01;1006.8;;;4;65.2
74427;BME280;62859;53.906;27.430;2023-02-11T19:51:11;1007;;;4;65.5
74427;BME280;62859;53.906;27.430;2023-02-11T19:56:47;1007.1;;;4.1;65.8
74427;BME280;62859;53.906;27.430;2023-02-11T20:01:12;1007.3;;;4;66.1
74427;BME280;62859;53.906;27.430;2023-02-11T20:06:37;1007.5;;;3.8;65.7
74427;BME280;62859;53.906;27.430;2023-02-11T20:11:12;1007.6;;;3.8;65.3
74427;BME280;62859;53.906;27.430;2023-02-11T20:16:59;1007.7;;;3.8;65.4
74427;BME280;62859;53.906;27.430;2023-02-11T20:21:35;1008;;;3.8;66.2
74427;BME280;62859;53.906;27.430;2023-02-11T20:26:39;1008.1;;;3.7;65.6
74427;BME280;62859;53.906;27.430;2023-02-11T20:31:47;1008.2;;;3.6;64.8
74427;BME280;62859;53.906;27.430;2023-02-11T20:37:01;1008.5;;;3.4;61.4
74427;BME280;62859;53.906;27.430;2023-02-11T20:41:35;1008.8;;;3.3;59.8
74427;BME280;62859;53.906;27.430;2023-02-11T20:46:11;1009;;;3.2;59.4
74427;BME280;62859;53.906;27.430;2023-02-11T20:52:01;1009.1;;;3.1;58.2
74427;BME280;62859;53.906;27.430;2023-02-11T20:56:11;1009.3;;;3.1;57.3
74427;BME280;62859;53.906;27.430;2023-02-11T21:01:49;1009.5;;;3;56.5
74427;BME280;62859;53.906;27.430;2023-02-11T21:06:58;1009.6;;;2.9;56.8
74427;BME280;62859;53.906;27.430;2023-02-11T21:11:59;1009.7;;;2.8;56.2
74427;BME280;62859;53.906;27.430;2023-02-11T21:16:23;1010;;;2.8;56.1
74427;BME280;62859;53.906;27.430;2023-02-11T21:22:01;1010.1;;;2.8;56
74427;BME280;62859;53.906;27.430;2023-02-11T21:26:45;1010.3;;;2.7;56.1
74427;BME280;62859;53.906;27.430;2023-02-11T21:31:15;1010.4;;;2.6;56.6
74427;BME280;62859;53.906;27.430;2023-02-11T21:36:37;1010.6;;;2.6;56.6
74427;BME280;62859;53.906;27.430;2023-02-11T21:41:11;1010.8;;;2.6;56.4
74427;BME280;62859;53.906;27.430;2023-02-11T21:46:21;1010.9;;;2.5;55.9
74427;BME280;62859;53.906;27.430;2023-02-11T21:51:49;1011.1;;;2.4;56.2
74427;BME280;62859;53.906;27.430;2023-02-11T21:56:12;1011.2;;;2.4;56.5
74427;BME280;62859;53.906;27.430;2023-02-11T22:01:55;1011.3;;;2.4;56.4
74427;BME280;62859;53.906;27.430;2023-02-11T22:06:24;1011.4;;;2.4;56.4
74427;BME280;62859;53.906;27.430;2023-02-11T22:11:25;1011.5;;;2.4;56.2
74427;BME280;62859;53.906;27.430;2023-02-11T22:17:01;1011.6;;;2.3;56.4
74427;BME280;62859;53.906;27.430;2023-02-11T22:21:45;1011.8;;;2.3;56.5
74427;BME280;62859;53.906;27.430;2023-02-11T22:26:39;1011.9;;;2.3;56.3
74427;BME280;62859;53.906;27.430;2023-02-11T22:31:37;1012;;;2.2;55.6
74427;BME280;62859;53.906;27.430;2023-02-11T22:36:21;1012.1;;;2.1;55.5
74427;BME280;62859;53.906;27.430;2023-02-11T22:41:37;1012.1;;;2.1;55.8
74427;BME280;62859;53.906;27.430;2023-02-11T22:46:59;1012.3;;;2;55.5
74427;BME280;62859;53.906;27.430;2023-02-11T22:51:26;1012.3;;;2;55.8
74427;BME280;62859;53.906;27.430;2023-02-11T22:56:59;1012.6;;;2;55.9
74427;BME280;62859;53.906;27.430;2023-02-11T23:01:35;1012.8;;;1.9;55.5
74427;BME280;62859;53.906;27.430;2023-02-11T23:07:01;1012.9;;;1.9;55.5
74427;BME280;62859;53.906;27.430;2023-02-11T23:11:26;1013;;;1.8;55.4
74427;BME280;62859;53.906;27.430;2023-02-11T23:16:48;1013.2;;;1.7;55.5
74427;BME280;62859;53.906;27.430;2023-02-11T23:21:12;1013.4;;;1.7;55.5
74427;BME280;62859;53.906;27.430;2023-02-11T23:26:59;1013.5;;;1.7;55.9
74427;BME280;62859;53.906;27.430;2023-02-11T23:31:47;1013.6;;;1.6;55.9
74427;BME280;62859;53.906;27.430;2023-02-11T23:37:01;1013.7;;;1.5;56.3
74427;BME280;62859;53.906;27.430;2023-02-11T23:42:01;1013.7;;;1.5;56.7
74427;BME280;62859;53.906;27.430;2023-02-11T23:46:47;1013.9;;;1.4;56.4
74427;BME280;62859;53.906;27.430;2023-02-11T23:51:47;1014;;;1.3;56.7
74427;BME280;62859;53.906;27.430;2023-02-11T23:56:23;1014.1;;;1.3;56.8
